sensor_id;sensor_type;location;lat;lon;timestamp;P1;durP1;ratioP1;P2;durP2;ratioP2
32637;SDS011;19045;52.268;10.506;2023-03-11T00:00:49;13.60;;;10.25;;
32637;SDS011;19045;52.268;10.506;2023-03-11T00:03:16;13.45;;;10.98;;
32637;SDS011;19045;52.268;10.506;2023-03-11T00:05:48;14.77;;;11.05;;
32637;SDS011;19045;52.268;10.506;2023-03-11T00:08:17;14.27;;;11.63;;
32637;SDS011;19045;52.268;10.506;2023-03-11T00:10:46;13.10;;;10.82;;
32637;SDS011;19045;52.268;10.506;2023-03-11T00:13:14;15.02;;;11.98;;
32637;SDS011;19045;52.268;10.506;2023-03-11T00:15:42;14.10;;;10.40;;
32637;SDS011;19045;52.268;10.506;2023-03-11T00:18:11;12.57;;;10.85;;
32637;SDS011;19045;52.268;10.506;2023-03-11T00:20:39;12.95;;;10.63;;
32637;SDS011;19045;52.268;10.506;2023-03-11T00:23:10;13.65;;;10.85;;
32637;SDS011;19045;52.268;10.506;2023-03-11T00:25:38;14.98;;;10.98;;
32637;SDS011;19045;52.268;10.506;2023-03-11T00:28:05;11.88;;;10.50;;
32637;SDS011;19045;52.268;10.506;2023-03-11T00:30:34;12.13;;;9.95;;
32637;SDS011;19045;52.268;10.506;2023-03-11T00:33:02;13.88;;;10.45;;
32637;SDS011;19045;52.268;10.506;2023-03-11T00:35:29;13.27;;;11.07;;
32637;SDS011;19045;52.268;10.506;2023-03-11T00:37:57;14.50;;;11.55;;
32637;SDS011;19045;52.268;10.506;2023-03-11T00:40:28;16.10;;;13.07;;
32637;SDS011;19045;52.268;10.506;2023-03-11T00:42:56;14.27;;;10.63;;
32637;SDS011;19045;52.268;10.506;2023-03-11T00:45:24;14.38;;;11.27;;
32637;SDS011;19045;52.268;10.506;2023-03-11T00:47:51;15.35;;;12.32;;
32637;SDS011;19045;52.268;10.506;2023-03-11T00:50:18;15.95;;;11.82;;
32637;SDS011;19045;52.268;10.506;2023-03-11T00:52:46;16.40;;;12.45;;
32637;SDS011;19045;52.268;10.506;2023-03-11T00:55:15;17.75;;;13.57;;
32637;SDS011;19045;52.268;10.506;2023-03-11T00:57:44;16.25;;;12.05;;
32637;SDS011;19045;52.268;10.506;2023-03-11T01:00:12;18.88;;;12.65;;
32637;SDS011;19045;52.268;10.506;2023-03-11T01:02:39;16.05;;;13.73;;
32637;SDS011;19045;52.268;10.506;2023-03-11T01:05:06;17.35;;;13.55;;
32637;SDS011;19045;52.268;10.506;2023-03-11T01:07:33;17.83;;;12.63;;
32637;SDS011;19045;52.268;10.506;2023-03-11T01:10:00;18.48;;;14.48;;
32637;SDS011;19045;52.268;10.506;2023-03-11T01:12:26;18.23;;;14.73;;
32637;SDS011;19045;52.268;10.506;2023-03-11T01:14:54;16.77;;;13.50;;
32637;SDS011;19045;52.268;10.506;2023-03-11T01:17:21;19.25;;;14.30;;
32637;SDS011;19045;52.268;10.506;2023-03-11T01:19:48;18.35;;;14.10;;
32637;SDS011;19045;52.268;10.506;2023-03-11T01:22:15;17.98;;;13.77;;
32637;SDS011;19045;52.268;10.506;2023-03-11T01:24:41;16.50;;;13.23;;
32637;SDS011;19045;52.268;10.506;2023-03-11T01:27:08;19.45;;;13.82;;
32637;SDS011;19045;52.268;10.506;2023-03-11T01:29:35;19.75;;;14.20;;
32637;SDS011;19045;52.268;10.506;2023-03-11T01:32:03;17.75;;;12.90;;
32637;SDS011;19045;52.268;10.506;2023-03-11T01:34:31;17.17;;;13.52;;
32637;SDS011;19045;52.268;10.506;2023-03-11T01:36:59;22.75;;;14.32;;
32637;SDS011;19045;52.268;10.506;2023-03-11T01:39:26;18.00;;;13.73;;
32637;SDS011;19045;52.268;10.506;2023-03-11T01:41:53;18.63;;;14.43;;
32637;SDS011;19045;52.268;10.506;2023-03-11T01:44:20;17.55;;;13.15;;
32637;SDS011;19045;52.268;10.506;2023-03-11T01:49:52;17.58;;;13.77;;
32637;SDS011;19045;52.268;10.506;2023-03-11T01:52:19;18.38;;;14.52;;
32637;SDS011;19045;52.268;10.506;2023-03-11T01:54:47;18.13;;;14.18;;
32637;SDS011;19045;52.268;10.506;2023-03-11T01:57:13;19.13;;;15.13;;
32637;SDS011;19045;52.268;10.506;2023-03-11T01:59:41;20.33;;;15.07;;
32637;SDS011;19045;52.268;10.506;2023-03-11T02:02:13;21.13;;;14.90;;
32637;SDS011;19045;52.268;10.506;2023-03-11T02:04:44;20.52;;;15.60;;
32637;SDS011;19045;52.268;10.506;2023-03-11T02:07:13;21.25;;;15.55;;
32637;SDS011;19045;52.268;10.506;2023-03-11T02:09:40;19.88;;;15.63;;
32637;SDS011;19045;52.268;10.506;2023-03-11T02:12:07;19.85;;;15.57;;
32637;SDS011;19045;52.268;10.506;2023-03-11T02:14:36;21.05;;;15.73;;
32637;SDS011;19045;52.268;10.506;2023-03-11T02:17:06;21.50;;;15.57;;
32637;SDS011;19045;52.268;10.506;2023-03-11T02:19:34;19.50;;;15.05;;
32637;SDS011;19045;52.268;10.506;2023-03-11T02:22:06;19.45;;;14.73;;
32637;SDS011;19045;52.268;10.506;2023-03-11T02:24:38;19.45;;;14.90;;
32637;SDS011;19045;52.268;10.506;2023-03-11T02:27:11;18.25;;;14.52;;
32637;SDS011;19045;52.268;10.506;2023-03-11T02:29:41;14.10;;;11.45;;
32637;SDS011;19045;52.268;10.506;2023-03-11T02:32:11;19.30;;;14.27;;
32637;SDS011;19045;52.268;10.506;2023-03-11T02:34:39;16.90;;;13.35;;
32637;SDS011;19045;52.268;10.506;2023-03-11T02:37:06;19.77;;;14.27;;
32637;SDS011;19045;52.268;10.506;2023-03-11T02:39:35;17.85;;;13.82;;
32637;SDS011;19045;52.268;10.506;2023-03-11T02:42:04;19.60;;;13.43;;
32637;SDS011;19045;52.268;10.506;2023-03-11T02:44:35;15.50;;;12.15;;
32637;SDS011;19045;52.268;10.506;2023-03-11T02:47:03;18.10;;;13.13;;
32637;SDS011;19045;52.268;10.506;2023-03-11T02:49:30;16.30;;;12.80;;
32637;SDS011;19045;52.268;10.506;2023-03-11T02:51:57;18.77;;;13.23;;
32637;SDS011;19045;52.268;10.506;2023-03-11T02:54:23;16.73;;;13.38;;
32637;SDS011;19045;52.268;10.506;2023-03-11T02:56:50;15.32;;;12.05;;
32637;SDS011;19045;52.268;10.506;2023-03-11T02:59:17;15.48;;;12.40;;
32637;SDS011;19045;52.268;10.506;2023-03-11T03:01:45;18.55;;;12.30;;
32637;SDS011;19045;52.268;10.506;2023-03-11T03:04:11;15.27;;;11.85;;
32637;SDS011;19045;52.268;10.506;2023-03-11T03:06:38;14.00;;;11.30;;
32637;SDS011;19045;52.268;10.506;2023-03-11T03:09:05;13.20;;;10.20;;
32637;SDS011;19045;52.268;10.506;2023-03-11T03:11:31;15.02;;;11.23;;
32637;SDS011;19045;52.268;10.506;2023-03-11T03:13:58;15.60;;;10.38;;
32637;SDS011;19045;52.268;10.506;2023-03-11T03:16:25;13.07;;;9.95;;
32637;SDS011;19045;52.268;10.506;2023-03-11T03:18:53;15.00;;;9.55;;
32637;SDS011;19045;52.268;10.506;2023-03-11T03:21:19;11.02;;;8.07;;
32637;SDS011;19045;52.268;10.506;2023-03-11T03:23:46;10.95;;;7.90;;
32637;SDS011;19045;52.268;10.506;2023-03-11T03:26:13;11.77;;;7.82;;
32637;SDS011;19045;52.268;10.506;2023-03-11T03:28:39;10.75;;;7.68;;
32637;SDS011;19045;52.268;10.506;2023-03-11T03:31:06;9.15;;;7.47;;
32637;SDS011;19045;52.268;10.506;2023-03-11T03:33:35;8.68;;;6.95;;
32637;SDS011;19045;52.268;10.506;2023-03-11T03:36:06;8.95;;;6.68;;
32637;SDS011;19045;52.268;10.506;2023-03-11T03:38:33;11.02;;;7.70;;
32637;SDS011;19045;52.268;10.506;2023-03-11T03:41:00;8.50;;;6.45;;
32637;SDS011;19045;52.268;10.506;2023-03-11T03:43:26;8.52;;;6.82;;
32637;SDS011;19045;52.268;10.506;2023-03-11T03:45:56;9.25;;;7.00;;
32637;SDS011;19045;52.268;10.506;2023-03-11T03:48:24;9.70;;;7.22;;
32637;SDS011;19045;52.268;10.506;2023-03-11T03:50:51;10.80;;;7.22;;
32637;SDS011;19045;52.268;10.506;2023-03-11T03:53:19;12.85;;;7.88;;
32637;SDS011;19045;52.268;10.506;2023-03-11T03:55:45;14.38;;;8.68;;
32637;SDS011;19045;52.268;10.506;2023-03-11T03:58:13;10.00;;;7.35;;
32637;SDS011;19045;52.268;10.506;2023-03-11T04:00:40;10.68;;;8.68;;
32637;SDS011;19045;52.268;10.506;2023-03-11T04:03:06;11.00;;;7.95;;
32637;SDS011;19045;52.268;10.506;2023-03-11T04:05:33;13.13;;;8.43;;
32637;SDS011;19045;52.268;10.506;2023-03-11T04:08:00;14.88;;;8.73;;
32637;SDS011;19045;52.268;10.506;2023-03-11T04:10:28;8.57;;;7.47;;
32637;SDS011;19045;52.268;10.506;2023-03-11T04:12:55;10.88;;;7.00;;
32637;SDS011;19045;52.268;10.506;2023-03-11T04:15:21;11.27;;;6.93;;
32637;SDS011;19045;52.268;10.506;2023-03-11T04:17:48;9.98;;;7.25;;
32637;SDS011;19045;52.268;10.506;2023-03-11T04:20:15;7.93;;;6.00;;
32637;SDS011;19045;52.268;10.506;2023-03-11T04:22:41;8.63;;;6.32;;
32637;SDS011;19045;52.268;10.506;2023-03-11T04:25:08;9.95;;;6.25;;
32637;SDS011;19045;52.268;10.506;2023-03-11T04:27:36;10.73;;;6.63;;
32637;SDS011;19045;52.268;10.506;2023-03-11T04:30:07;8.55;;;6.68;;
32637;SDS011;19045;52.268;10.506;2023-03-11T04:32:34;9.35;;;6.03;;
32637;SDS011;19045;52.268;10.506;2023-03-11T04:35:01;9.18;;;6.00;;
32637;SDS011;19045;52.268;10.506;2023-03-11T04:37:27;9.43;;;5.88;;
32637;SDS011;19045;52.268;10.506;2023-03-11T04:39:54;10.73;;;6.53;;
32637;SDS011;19045;52.268;10.506;2023-03-11T04:42:21;7.63;;;6.45;;
32637;SDS011;19045;52.268;10.506;2023-03-11T04:44:49;8.85;;;5.85;;
32637;SDS011;19045;52.268;10.506;2023-03-11T04:47:15;11.77;;;7.10;;
32637;SDS011;19045;52.268;10.506;2023-03-11T04:49:42;7.82;;;6.32;;
32637;SDS011;19045;52.268;10.506;2023-03-11T04:52:08;12.65;;;7.25;;
32637;SDS011;19045;52.268;10.506;2023-03-11T04:54:35;8.98;;;5.60;;
32637;SDS011;19045;52.268;10.506;2023-03-11T04:57:01;9.40;;;6.35;;
32637;SDS011;19045;52.268;10.506;2023-03-11T04:59:28;9.10;;;6.03;;
32637;SDS011;19045;52.268;10.506;2023-03-11T05:01:56;12.30;;;5.85;;
32637;SDS011;19045;52.268;10.506;2023-03-11T05:04:22;9.07;;;5.65;;
32637;SDS011;19045;52.268;10.506;2023-03-11T05:06:49;9.38;;;6.07;;
32637;SDS011;19045;52.268;10.506;2023-03-11T05:09:16;6.18;;;5.47;;
32637;SDS011;19045;52.268;10.506;2023-03-11T05:11:42;7.72;;;5.93;;
32637;SDS011;19045;52.268;10.506;2023-03-11T05:14:09;8.07;;;5.50;;
32637;SDS011;19045;52.268;10.506;2023-03-11T05:16:35;10.70;;;5.63;;
32637;SDS011;19045;52.268;10.506;2023-03-11T05:19:03;12.15;;;5.80;;
32637;SDS011;19045;52.268;10.506;2023-03-11T05:21:50;7.60;;;5.80;;
32637;SDS011;19045;52.268;10.506;2023-03-11T05:24:17;8.85;;;5.82;;
32637;SDS011;19045;52.268;10.506;2023-03-11T05:26:44;7.60;;;4.97;;
32637;SDS011;19045;52.268;10.506;2023-03-11T05:29:10;8.77;;;5.38;;
32637;SDS011;19045;52.268;10.506;2023-03-11T05:31:37;8.93;;;5.40;;
32637;SDS011;19045;52.268;10.506;2023-03-11T05:34:05;6.65;;;5.22;;
32637;SDS011;19045;52.268;10.506;2023-03-11T05:36:32;9.77;;;4.88;;
32637;SDS011;19045;52.268;10.506;2023-03-11T05:38:58;8.68;;;4.85;;
32637;SDS011;19045;52.268;10.506;2023-03-11T05:41:25;7.60;;;5.60;;
32637;SDS011;19045;52.268;10.506;2023-03-11T05:43:51;9.93;;;4.65;;
32637;SDS011;19045;52.268;10.506;2023-03-11T05:46:18;9.63;;;6.07;;
32637;SDS011;19045;52.268;10.506;2023-03-11T05:48:45;9.10;;;5.40;;
32637;SDS011;19045;52.268;10.506;2023-03-11T05:51:13;14.32;;;5.25;;
32637;SDS011;19045;52.268;10.506;2023-03-11T05:53:40;14.30;;;6.05;;
32637;SDS011;19045;52.268;10.506;2023-03-11T05:56:12;9.43;;;6.07;;
32637;SDS011;19045;52.268;10.506;2023-03-11T05:58:39;14.68;;;5.82;;
32637;SDS011;19045;52.268;10.506;2023-03-11T06:01:06;15.52;;;7.15;;
32637;SDS011;19045;52.268;10.506;2023-03-11T06:03:34;13.30;;;6.35;;
32637;SDS011;19045;52.268;10.506;2023-03-11T06:06:00;16.23;;;6.97;;
32637;SDS011;19045;52.268;10.506;2023-03-11T06:08:28;10.40;;;6.55;;
32637;SDS011;19045;52.268;10.506;2023-03-11T06:10:59;14.95;;;6.50;;
32637;SDS011;19045;52.268;10.506;2023-03-11T06:13:27;11.73;;;6.57;;
32637;SDS011;19045;52.268;10.506;2023-03-11T06:15:53;14.45;;;6.28;;
32637;SDS011;19045;52.268;10.506;2023-03-11T06:18:20;9.00;;;5.63;;
32637;SDS011;19045;52.268;10.506;2023-03-11T06:20:46;11.85;;;6.45;;
32637;SDS011;19045;52.268;10.506;2023-03-11T06:23:13;14.35;;;5.97;;
32637;SDS011;19045;52.268;10.506;2023-03-11T06:25:41;16.20;;;6.82;;
32637;SDS011;19045;52.268;10.506;2023-03-11T06:28:07;14.00;;;6.85;;
32637;SDS011;19045;52.268;10.506;2023-03-11T06:30:34;14.73;;;6.88;;
32637;SDS011;19045;52.268;10.506;2023-03-11T06:33:01;11.38;;;6.60;;
32637;SDS011;19045;52.268;10.506;2023-03-11T06:35:28;12.63;;;6.95;;
32637;SDS011;19045;52.268;10.506;2023-03-11T06:37:54;11.73;;;6.35;;
32637;SDS011;19045;52.268;10.506;2023-03-11T06:40:21;15.10;;;6.35;;
32637;SDS011;19045;52.268;10.506;2023-03-11T06:42:49;9.98;;;6.47;;
32637;SDS011;19045;52.268;10.506;2023-03-11T06:45:16;11.48;;;6.25;;
32637;SDS011;19045;52.268;10.506;2023-03-11T06:47:43;11.13;;;5.70;;
32637;SDS011;19045;52.268;10.506;2023-03-11T06:50:10;8.23;;;5.40;;
32637;SDS011;19045;52.268;10.506;2023-03-11T06:52:36;7.53;;;5.47;;
32637;SDS011;19045;52.268;10.506;2023-03-11T06:55:03;10.38;;;5.18;;
32637;SDS011;19045;52.268;10.506;2023-03-11T06:57:31;10.30;;;6.15;;
32637;SDS011;19045;52.268;10.506;2023-03-11T06:59:59;9.95;;;4.97;;
32637;SDS011;19045;52.268;10.506;2023-03-11T07:02:25;11.25;;;5.68;;
32637;SDS011;19045;52.268;10.506;2023-03-11T07:04:52;14.30;;;5.18;;
32637;SDS011;19045;52.268;10.506;2023-03-11T07:07:19;15.43;;;5.53;;
32637;SDS011;19045;52.268;10.506;2023-03-11T07:09:45;10.00;;;5.65;;
32637;SDS011;19045;52.268;10.506;2023-03-11T07:12:12;13.45;;;5.43;;
32637;SDS011;19045;52.268;10.506;2023-03-11T07:14:39;12.70;;;5.35;;
32637;SDS011;19045;52.268;10.506;2023-03-11T07:17:07;11.02;;;4.90;;
32637;SDS011;19045;52.268;10.506;2023-03-11T07:19:34;13.55;;;5.38;;
32637;SDS011;19045;52.268;10.506;2023-03-11T07:22:00;12.65;;;5.22;;
32637;SDS011;19045;52.268;10.506;2023-03-11T07:24:27;17.38;;;5.82;;
32637;SDS011;19045;52.268;10.506;2023-03-11T07:26:53;13.00;;;5.78;;
32637;SDS011;19045;52.268;10.506;2023-03-11T07:29:21;15.82;;;5.93;;
32637;SDS011;19045;52.268;10.506;2023-03-11T07:31:48;10.63;;;4.93;;
32637;SDS011;19045;52.268;10.506;2023-03-11T07:34:15;13.80;;;5.05;;
32637;SDS011;19045;52.268;10.506;2023-03-11T07:36:42;8.82;;;5.18;;
32637;SDS011;19045;52.268;10.506;2023-03-11T07:39:11;11.38;;;5.18;;
32637;SDS011;19045;52.268;10.506;2023-03-11T07:41:39;16.58;;;5.57;;
32637;SDS011;19045;52.268;10.506;2023-03-11T07:44:05;9.57;;;5.30;;
32637;SDS011;19045;52.268;10.506;2023-03-11T07:46:32;16.55;;;5.60;;
32637;SDS011;19045;52.268;10.506;2023-03-11T07:48:59;11.95;;;5.70;;
32637;SDS011;19045;52.268;10.506;2023-03-11T07:51:29;8.77;;;5.93;;
32637;SDS011;19045;52.268;10.506;2023-03-11T07:53:57;8.38;;;5.10;;
32637;SDS011;19045;52.268;10.506;2023-03-11T07:56:26;9.88;;;5.00;;
32637;SDS011;19045;52.268;10.506;2023-03-11T07:58:53;10.40;;;4.78;;
32637;SDS011;19045;52.268;10.506;2023-03-11T08:01:21;7.85;;;4.85;;
32637;SDS011;19045;52.268;10.506;2023-03-11T08:03:50;12.57;;;5.57;;
32637;SDS011;19045;52.268;10.506;2023-03-11T08:06:21;10.18;;;4.60;;
32637;SDS011;19045;52.268;10.506;2023-03-11T08:08:51;11.82;;;4.72;;
32637;SDS011;19045;52.268;10.506;2023-03-11T08:11:18;11.07;;;5.05;;
32637;SDS011;19045;52.268;10.506;2023-03-11T08:13:46;15.18;;;5.30;;
32637;SDS011;19045;52.268;10.506;2023-03-11T08:16:14;12.35;;;4.88;;
32637;SDS011;19045;52.268;10.506;2023-03-11T08:18:43;12.45;;;5.10;;
32637;SDS011;19045;52.268;10.506;2023-03-11T08:21:11;10.57;;;5.07;;
32637;SDS011;19045;52.268;10.506;2023-03-11T08:23:39;9.65;;;4.60;;
32637;SDS011;19045;52.268;10.506;2023-03-11T08:26:09;9.43;;;5.05;;
32637;SDS011;19045;52.268;10.506;2023-03-11T08:28:37;10.07;;;5.45;;
32637;SDS011;19045;52.268;10.506;2023-03-11T08:31:10;11.57;;;4.40;;
32637;SDS011;19045;52.268;10.506;2023-03-11T08:33:38;12.57;;;4.80;;
32637;SDS011;19045;52.268;10.506;2023-03-11T08:36:05;11.25;;;5.30;;
32637;SDS011;19045;52.268;10.506;2023-03-11T08:38:32;10.93;;;5.28;;
32637;SDS011;19045;52.268;10.506;2023-03-11T08:40:58;7.03;;;4.97;;
32637;SDS011;19045;52.268;10.506;2023-03-11T08:43:27;11.07;;;4.43;;
32637;SDS011;19045;52.268;10.506;2023-03-11T08:45:54;12.80;;;5.60;;
32637;SDS011;19045;52.268;10.506;2023-03-11T08:48:20;9.48;;;5.00;;
32637;SDS011;19045;52.268;10.506;2023-03-11T08:50:49;11.10;;;5.60;;
32637;SDS011;19045;52.268;10.506;2023-03-11T08:53:16;13.75;;;6.25;;
32637;SDS011;19045;52.268;10.506;2023-03-11T08:55:42;10.50;;;6.22;;
32637;SDS011;19045;52.268;10.506;2023-03-11T08:58:09;22.35;;;6.93;;
32637;SDS011;19045;52.268;10.506;2023-03-11T09:00:37;11.52;;;5.85;;
32637;SDS011;19045;52.268;10.506;2023-03-11T09:03:03;14.48;;;5.75;;
32637;SDS011;19045;52.268;10.506;2023-03-11T09:05:30;11.88;;;6.10;;
32637;SDS011;19045;52.268;10.506;2023-03-11T09:07:56;11.27;;;6.60;;
32637;SDS011;19045;52.268;10.506;2023-03-11T09:10:23;11.05;;;6.80;;
32637;SDS011;19045;52.268;10.506;2023-03-11T09:12:50;10.98;;;6.15;;
32637;SDS011;19045;52.268;10.506;2023-03-11T09:15:16;13.55;;;6.45;;
32637;SDS011;19045;52.268;10.506;2023-03-11T09:17:45;11.60;;;6.55;;
32637;SDS011;19045;52.268;10.506;2023-03-11T09:20:11;13.93;;;6.63;;
32637;SDS011;19045;52.268;10.506;2023-03-11T09:22:39;12.57;;;5.70;;
32637;SDS011;19045;52.268;10.506;2023-03-11T09:25:06;12.13;;;5.35;;
32637;SDS011;19045;52.268;10.506;2023-03-11T09:27:33;9.70;;;5.45;;
32637;SDS011;19045;52.268;10.506;2023-03-11T09:30:00;8.32;;;4.80;;
32637;SDS011;19045;52.268;10.506;2023-03-11T09:32:26;10.32;;;4.28;;
32637;SDS011;19045;52.268;10.506;2023-03-11T09:34:54;9.73;;;4.22;;
32637;SDS011;19045;52.268;10.506;2023-03-11T09:37:21;8.30;;;3.58;;
32637;SDS011;19045;52.268;10.506;2023-03-11T09:39:48;6.60;;;3.40;;
32637;SDS011;19045;52.268;10.506;2023-03-11T09:42:17;9.13;;;3.08;;
32637;SDS011;19045;52.268;10.506;2023-03-11T09:44:50;10.55;;;3.28;;
32637;SDS011;19045;52.268;10.506;2023-03-11T09:50:22;6.60;;;3.10;;
32637;SDS011;19045;52.268;10.506;2023-03-11T09:52:56;9.48;;;3.00;;
32637;SDS011;19045;52.268;10.506;2023-03-11T09:55:32;4.90;;;2.80;;
32637;SDS011;19045;52.268;10.506;2023-03-11T09:58:03;5.07;;;2.78;;
32637;SDS011;19045;52.268;10.506;2023-03-11T10:00:35;5.13;;;3.10;;
32637;SDS011;19045;52.268;10.506;2023-03-11T10:03:02;7.13;;;3.35;;
32637;SDS011;19045;52.268;10.506;2023-03-11T10:05:39;5.75;;;3.15;;
32637;SDS011;19045;52.268;10.506;2023-03-11T10:08:11;6.57;;;2.78;;
32637;SDS011;19045;52.268;10.506;2023-03-11T10:10:49;7.25;;;3.63;;
32637;SDS011;19045;52.268;10.506;2023-03-11T10:13:27;7.63;;;3.78;;
32637;SDS011;19045;52.268;10.506;2023-03-11T10:16:03;6.15;;;3.10;;
32637;SDS011;19045;52.268;10.506;2023-03-11T10:18:39;7.70;;;3.38;;
32637;SDS011;19045;52.268;10.506;2023-03-11T10:21:32;6.75;;;2.70;;
32637;SDS011;19045;52.268;10.506;2023-03-11T10:24:12;5.30;;;2.30;;
32637;SDS011;19045;52.268;10.506;2023-03-11T10:26:45;5.80;;;2.10;;
32637;SDS011;19045;52.268;10.506;2023-03-11T10:29:15;5.05;;;2.50;;
32637;SDS011;19045;52.268;10.506;2023-03-11T10:31:47;3.33;;;1.92;;
32637;SDS011;19045;52.268;10.506;2023-03-11T10:34:19;5.75;;;2.17;;
32637;SDS011;19045;52.268;10.506;2023-03-11T10:36:55;4.57;;;2.17;;
32637;SDS011;19045;52.268;10.506;2023-03-11T10:39:27;3.72;;;1.92;;
32637;SDS011;19045;52.268;10.506;2023-03-11T10:41:56;6.15;;;2.20;;
32637;SDS011;19045;52.268;10.506;2023-03-11T10:44:27;3.38;;;1.77;;
32637;SDS011;19045;52.268;10.506;2023-03-11T10:46:57;3.85;;;2.30;;
32637;SDS011;19045;52.268;10.506;2023-03-11T10:49:23;3.88;;;2.40;;
32637;SDS011;19045;52.268;10.506;2023-03-11T10:51:50;4.45;;;2.78;;
32637;SDS011;19045;52.268;10.506;2023-03-11T10:54:24;6.70;;;2.30;;
32637;SDS011;19045;52.268;10.506;2023-03-11T10:56:55;4.93;;;2.22;;
32637;SDS011;19045;52.268;10.506;2023-03-11T10:59:23;4.10;;;2.20;;
32637;SDS011;19045;52.268;10.506;2023-03-11T11:01:53;6.10;;;2.08;;
32637;SDS011;19045;52.268;10.506;2023-03-11T11:04:26;5.60;;;2.13;;
32637;SDS011;19045;52.268;10.506;2023-03-11T11:06:55;2.70;;;2.00;;
32637;SDS011;19045;52.268;10.506;2023-03-11T11:09:24;3.70;;;1.75;;
32637;SDS011;19045;52.268;10.506;2023-03-11T11:12:02;4.50;;;1.90;;
32637;SDS011;19045;52.268;10.506;2023-03-11T11:17:13;5.15;;;2.00;;
32637;SDS011;19045;52.268;10.506;2023-03-11T11:19:42;6.40;;;2.30;;
32637;SDS011;19045;52.268;10.506;2023-03-11T11:22:09;5.05;;;2.50;;
32637;SDS011;19045;52.268;10.506;2023-03-11T11:24:44;4.32;;;1.92;;
32637;SDS011;19045;52.268;10.506;2023-03-11T11:27:14;4.13;;;1.52;;
32637;SDS011;19045;52.268;10.506;2023-03-11T11:29:43;5.20;;;2.10;;
32637;SDS011;19045;52.268;10.506;2023-03-11T11:32:15;4.57;;;1.83;;
32637;SDS011;19045;52.268;10.506;2023-03-11T11:34:51;4.28;;;1.55;;
32637;SDS011;19045;52.268;10.506;2023-03-11T11:37:20;2.42;;;1.40;;
32637;SDS011;19045;52.268;10.506;2023-03-11T11:39:50;3.78;;;1.60;;
32637;SDS011;19045;52.268;10.506;2023-03-11T11:42:20;4.15;;;2.15;;
32637;SDS011;19045;52.268;10.506;2023-03-11T11:44:50;4.63;;;2.30;;
32637;SDS011;19045;52.268;10.506;2023-03-11T11:47:22;3.42;;;2.10;;
32637;SDS011;19045;52.268;10.506;2023-03-11T11:49:52;6.60;;;2.33;;
32637;SDS011;19045;52.268;10.506;2023-03-11T11:52:21;5.03;;;2.20;;
32637;SDS011;19045;52.268;10.506;2023-03-11T11:54:52;5.82;;;2.13;;
32637;SDS011;19045;52.268;10.506;2023-03-11T11:57:24;3.40;;;1.80;;
32637;SDS011;19045;52.268;10.506;2023-03-11T11:59:50;3.47;;;2.17;;
32637;SDS011;19045;52.268;10.506;2023-03-11T12:02:22;5.20;;;1.90;;
32637;SDS011;19045;52.268;10.506;2023-03-11T12:05:03;6.25;;;2.42;;
32637;SDS011;19045;52.268;10.506;2023-03-11T12:07:41;5.25;;;2.05;;
32637;SDS011;19045;52.268;10.506;2023-03-11T12:10:20;3.80;;;2.08;;
32637;SDS011;19045;52.268;10.506;2023-03-11T12:13:05;4.85;;;2.00;;
32637;SDS011;19045;52.268;10.506;2023-03-11T12:15:56;7.22;;;2.00;;
32637;SDS011;19045;52.268;10.506;2023-03-11T12:18:28;4.40;;;1.67;;
32637;SDS011;19045;52.268;10.506;2023-03-11T12:21:03;4.35;;;1.58;;
32637;SDS011;19045;52.268;10.506;2023-03-11T12:23:42;9.35;;;2.13;;
32637;SDS011;19045;52.268;10.506;2023-03-11T12:26:22;4.85;;;1.80;;
32637;SDS011;19045;52.268;10.506;2023-03-11T12:28:52;8.13;;;2.20;;
32637;SDS011;19045;52.268;10.506;2023-03-11T12:31:22;4.85;;;1.88;;
32637;SDS011;19045;52.268;10.506;2023-03-11T12:33:54;3.05;;;1.58;;
32637;SDS011;19045;52.268;10.506;2023-03-11T12:36:23;4.05;;;1.50;;
32637;SDS011;19045;52.268;10.506;2023-03-11T12:38:54;5.13;;;1.38;;
32637;SDS011;19045;52.268;10.506;2023-03-11T12:41:32;3.45;;;1.70;;
32637;SDS011;19045;52.268;10.506;2023-03-11T12:49:55;8.07;;;1.92;;
32637;SDS011;19045;52.268;10.506;2023-03-11T12:52:51;7.20;;;1.80;;
32637;SDS011;19045;52.268;10.506;2023-03-11T12:55:23;10.43;;;2.30;;
32637;SDS011;19045;52.268;10.506;2023-03-11T12:58:11;8.57;;;1.88;;
32637;SDS011;19045;52.268;10.506;2023-03-11T13:01:02;4.65;;;1.73;;
32637;SDS011;19045;52.268;10.506;2023-03-11T13:03:41;5.70;;;1.58;;
32637;SDS011;19045;52.268;10.506;2023-03-11T13:06:21;9.07;;;2.15;;
32637;SDS011;19045;52.268;10.506;2023-03-11T13:09:10;6.88;;;2.10;;
32637;SDS011;19045;52.268;10.506;2023-03-11T13:11:41;6.10;;;2.22;;
32637;SDS011;19045;52.268;10.506;2023-03-11T13:14:19;8.15;;;1.98;;
32637;SDS011;19045;52.268;10.506;2023-03-11T13:16:51;5.55;;;2.13;;
32637;SDS011;19045;52.268;10.506;2023-03-11T13:30:54;6.88;;;2.65;;
32637;SDS011;19045;52.268;10.506;2023-03-11T13:33:31;5.55;;;2.20;;
32637;SDS011;19045;52.268;10.506;2023-03-11T13:36:09;5.00;;;1.70;;
32637;SDS011;19045;52.268;10.506;2023-03-11T13:38:51;6.22;;;1.63;;
32637;SDS011;19045;52.268;10.506;2023-03-11T13:41:34;5.28;;;2.60;;
32637;SDS011;19045;52.268;10.506;2023-03-11T13:44:09;8.80;;;1.77;;
32637;SDS011;19045;52.268;10.506;2023-03-11T13:46:40;6.50;;;2.63;;
32637;SDS011;19045;52.268;10.506;2023-03-11T13:49:13;6.32;;;2.17;;
32637;SDS011;19045;52.268;10.506;2023-03-11T13:51:50;4.55;;;1.65;;
32637;SDS011;19045;52.268;10.506;2023-03-11T13:57:14;5.22;;;1.35;;
32637;SDS011;19045;52.268;10.506;2023-03-11T13:59:51;5.85;;;1.65;;
32637;SDS011;19045;52.268;10.506;2023-03-11T14:02:20;6.15;;;1.40;;
32637;SDS011;19045;52.268;10.506;2023-03-11T14:04:49;5.70;;;1.17;;
32637;SDS011;19045;52.268;10.506;2023-03-11T14:07:19;6.93;;;1.52;;
32637;SDS011;19045;52.268;10.506;2023-03-11T14:09:50;6.68;;;1.60;;
32637;SDS011;19045;52.268;10.506;2023-03-11T14:12:18;4.10;;;1.48;;
32637;SDS011;19045;52.268;10.506;2023-03-11T14:14:46;5.78;;;1.70;;
32637;SDS011;19045;52.268;10.506;2023-03-11T14:17:16;8.40;;;2.05;;
32637;SDS011;19045;52.268;10.506;2023-03-11T14:22:38;5.93;;;1.80;;
32637;SDS011;19045;52.268;10.506;2023-03-11T14:25:09;7.18;;;1.60;;
32637;SDS011;19045;52.268;10.506;2023-03-11T14:27:45;3.95;;;1.73;;
32637;SDS011;19045;52.268;10.506;2023-03-11T14:30:20;10.57;;;2.45;;
32637;SDS011;19045;52.268;10.506;2023-03-11T14:32:57;4.38;;;2.25;;
32637;SDS011;19045;52.268;10.506;2023-03-11T14:35:25;4.82;;;2.22;;
32637;SDS011;19045;52.268;10.506;2023-03-11T14:37:52;7.45;;;2.17;;
32637;SDS011;19045;52.268;10.506;2023-03-11T14:40:26;9.15;;;2.35;;
32637;SDS011;19045;52.268;10.506;2023-03-11T14:42:56;7.97;;;2.83;;
32637;SDS011;19045;52.268;10.506;2023-03-11T14:45:27;6.60;;;2.37;;
32637;SDS011;19045;52.268;10.506;2023-03-11T14:47:56;10.07;;;2.45;;
32637;SDS011;19045;52.268;10.506;2023-03-11T14:50:29;6.28;;;2.45;;
32637;SDS011;19045;52.268;10.506;2023-03-11T14:52:59;8.88;;;2.10;;
32637;SDS011;19045;52.268;10.506;2023-03-11T14:55:29;6.15;;;1.67;;
32637;SDS011;19045;52.268;10.506;2023-03-11T14:58:00;4.68;;;1.85;;
32637;SDS011;19045;52.268;10.506;2023-03-11T15:00:31;7.00;;;1.75;;
32637;SDS011;19045;52.268;10.506;2023-03-11T15:03:03;6.93;;;1.80;;
32637;SDS011;19045;52.268;10.506;2023-03-11T15:05:41;9.80;;;1.35;;
32637;SDS011;19045;52.268;10.506;2023-03-11T15:10:37;4.88;;;1.65;;
32637;SDS011;19045;52.268;10.506;2023-03-11T15:13:07;6.35;;;1.98;;